Shorewood, Wisconsin
Current Conditions -  °F | °C
As of 7:45 AM on Saturday 22 Nov 2014 (Local Time) from KMWC Reporting Station
Haze Haze  
Wind Chill: 28°   Ceiling: 500
Heat Index: 36°   Visibility: 2.5mi
Dew Point: 32°   Wind: 12mph
Humidity: 87%   Direction: 220°SW
Pressure: 29.97"   Gusts: NA
Location:  43.0828°N, 87.8841°W
Report Text: KMWC 221345Z AUTO 22010KT 2 1/2SM BR OVC005 02/00 A2997
Loading
Personal Weather Stations






























Interactive Weather Map New forecast layout! Learn more

10-Day Weather Forecast

Advertisements
Track Severe Weather on mobile